SLE712 NWWW-NCRG
Flight info
| Callsign | SLE712 |
|---|---|
| Flight time | 4h 46m |
| Altitude | 40000 |
| Route | VIRAR3E VIRAR DCT GUTMA ANIVA1A |
| Aircraft | C700/M-SBDGHM1RWXY/LB2 |
Departure
| Time | 2026-04-26 05:16 |
|---|---|
| Airport | La Tontouta International Airport (NWWW) |
Arrival
| Time | 2026-04-26 10:03 |
|---|---|
| Airport | Rarotonga International Airport (NCRG) |
| Time | Latitude | Longitude | Altitude | Speed | Heading |
|---|---|---|---|---|---|
| 2026-04-26 05:12 | -22.01599 | 166.21378 | 18 ft | 0 kts | 31° |
| 2026-04-26 05:12 | -22.00711 | 166.19975 | 7 ft | 0 kts | 121° |
| 2026-04-26 05:16 | -22.00786 | 166.20110 | 8 ft | 58 kts | 121° |
| 2026-04-26 05:16 | -22.01138 | 166.20746 | 17 ft | 137 kts | 121° |
| 2026-04-26 05:16 | -22.01722 | 166.21822 | 277 ft | 192 kts | 120° |
| 2026-04-26 05:16 | -22.02474 | 166.23191 | 669 ft | 219 kts | 122° |
| 2026-04-26 05:17 | -22.03239 | 166.24514 | 1255 ft | 199 kts | 122° |
| 2026-04-26 05:17 | -22.04003 | 166.25708 | 1863 ft | 191 kts | 137° |
| 2026-04-26 05:17 | -22.05232 | 166.26275 | 2433 ft | 204 kts | 174° |
| 2026-04-26 05:17 | -22.06685 | 166.26087 | 3051 ft | 223 kts | 191° |
| 2026-04-26 05:18 | -22.08310 | 166.25719 | 3702 ft | 254 kts | 191° |
| 2026-04-26 05:18 | -22.10068 | 166.25341 | 4338 ft | 266 kts | 191° |
| 2026-04-26 05:18 | -22.11919 | 166.24955 | 4962 ft | 274 kts | 191° |
| 2026-04-26 05:18 | -22.13808 | 166.24583 | 5569 ft | 277 kts | 188° |
| 2026-04-26 05:19 | -22.15745 | 166.24660 | 6182 ft | 281 kts | 172° |
| 2026-04-26 05:19 | -22.17670 | 166.25106 | 6770 ft | 284 kts | 169° |
| 2026-04-26 05:19 | -22.19619 | 166.25554 | 7367 ft | 288 kts | 170° |
| 2026-04-26 05:19 | -22.21595 | 166.26001 | 7968 ft | 292 kts | 170° |
| 2026-04-26 05:20 | -22.23613 | 166.26469 | 8577 ft | 300 kts | 171° |
| 2026-04-26 05:20 | -22.25690 | 166.26941 | 9211 ft | 309 kts | 172° |
| 2026-04-26 05:20 | -22.27803 | 166.27422 | 9847 ft | 312 kts | 172° |
| 2026-04-26 05:20 | -22.29947 | 166.27917 | 10428 ft | 323 kts | 172° |
| 2026-04-26 05:21 | -22.32228 | 166.28441 | 11039 ft | 340 kts | 172° |
| 2026-04-26 05:21 | -22.34563 | 166.28977 | 11650 ft | 346 kts | 172° |
| 2026-04-26 05:21 | -22.36942 | 166.29525 | 12269 ft | 352 kts | 172° |
| 2026-04-26 05:21 | -22.39320 | 166.30072 | 12896 ft | 356 kts | 172° |
| 2026-04-26 05:22 | -22.41730 | 166.30825 | 13525 ft | 366 kts | 161° |
| 2026-04-26 05:22 | -22.44019 | 166.32085 | 14117 ft | 372 kts | 154° |
| 2026-04-26 05:22 | -22.46296 | 166.33446 | 14698 ft | 375 kts | 154° |
| 2026-04-26 05:22 | -22.48595 | 166.34806 | 15288 ft | 378 kts | 155° |
| 2026-04-26 05:23 | -22.50917 | 166.36174 | 15901 ft | 382 kts | 155° |
| 2026-04-26 05:23 | -22.53259 | 166.37562 | 16523 ft | 387 kts | 154° |
| 2026-04-26 05:23 | -22.55638 | 166.38973 | 17161 ft | 393 kts | 154° |
| 2026-04-26 05:23 | -22.58049 | 166.40403 | 17804 ft | 398 kts | 155° |
| 2026-04-26 05:24 | -22.60495 | 166.41853 | 18419 ft | 403 kts | 155° |
| 2026-04-26 05:24 | -22.62967 | 166.43319 | 18988 ft | 407 kts | 155° |
| 2026-04-26 05:24 | -22.65458 | 166.44798 | 19565 ft | 410 kts | 154° |
| 2026-04-26 05:24 | -22.67973 | 166.46292 | 20171 ft | 413 kts | 154° |
| 2026-04-26 05:25 | -22.70505 | 166.47796 | 20777 ft | 415 kts | 154° |
| 2026-04-26 05:25 | -22.73007 | 166.49283 | 21383 ft | 417 kts | 154° |
| 2026-04-26 05:25 | -22.75584 | 166.50814 | 21655 ft | 434 kts | 154° |
| 2026-04-26 05:25 | -22.78322 | 166.52435 | 21600 ft | 464 kts | 154° |
| 2026-04-26 05:26 | -22.81146 | 166.54123 | 22230 ft | 449 kts | 154° |
| 2026-04-26 05:26 | -22.83811 | 166.55725 | 23120 ft | 432 kts | 154° |
| 2026-04-26 05:26 | -22.86452 | 166.57289 | 23961 ft | 432 kts | 154° |
| 2026-04-26 05:26 | -22.89104 | 166.58858 | 24744 ft | 434 kts | 154° |
| 2026-04-26 05:27 | -22.91756 | 166.60443 | 25547 ft | 436 kts | 155° |
| 2026-04-26 05:27 | -22.94413 | 166.62034 | 26385 ft | 436 kts | 155° |
| 2026-04-26 05:27 | -22.97067 | 166.63617 | 27230 ft | 435 kts | 155° |
| 2026-04-26 05:27 | -22.99711 | 166.65194 | 28106 ft | 432 kts | 156° |
| 2026-04-26 05:28 | -23.02327 | 166.66756 | 29004 ft | 429 kts | 156° |
| 2026-04-26 05:28 | -23.04940 | 166.68319 | 29932 ft | 425 kts | 156° |
| 2026-04-26 05:28 | -23.07519 | 166.69862 | 30738 ft | 420 kts | 157° |
| 2026-04-26 05:28 | -23.10044 | 166.71373 | 31541 ft | 414 kts | 157° |
| 2026-04-26 05:29 | -23.12538 | 166.72866 | 32363 ft | 405 kts | 157° |
| 2026-04-26 05:29 | -23.14975 | 166.74326 | 33207 ft | 395 kts | 158° |
| 2026-04-26 05:29 | -23.17341 | 166.75744 | 34046 ft | 382 kts | 158° |
| 2026-04-26 05:29 | -23.19631 | 166.77118 | 34827 ft | 367 kts | 159° |
| 2026-04-26 05:30 | -23.21815 | 166.78429 | 35588 ft | 350 kts | 159° |
| 2026-04-26 05:30 | -23.23879 | 166.79669 | 36338 ft | 328 kts | 160° |
| 2026-04-26 05:30 | -23.25848 | 166.80848 | 36717 ft | 324 kts | 160° |
| 2026-04-26 05:30 | -23.27876 | 166.82037 | 36514 ft | 344 kts | 160° |
| 2026-04-26 05:31 | -23.30005 | 166.83313 | 36535 ft | 355 kts | 159° |
| 2026-04-26 05:31 | -23.32193 | 166.84643 | 36619 ft | 364 kts | 159° |
| 2026-04-26 05:31 | -23.34436 | 166.85992 | 36780 ft | 371 kts | 159° |
| 2026-04-26 05:31 | -23.36669 | 166.87327 | 36946 ft | 377 kts | 158° |
| 2026-04-26 05:32 | -23.38932 | 166.88688 | 37153 ft | 381 kts | 158° |
| 2026-04-26 05:32 | -23.41263 | 166.90096 | 37405 ft | 385 kts | 158° |
| 2026-04-26 05:32 | -23.43614 | 166.91510 | 37672 ft | 387 kts | 158° |
| 2026-04-26 05:32 | -23.45985 | 166.92935 | 37957 ft | 389 kts | 158° |
| 2026-04-26 05:33 | -23.48362 | 166.94366 | 38243 ft | 390 kts | 158° |
| 2026-04-26 05:33 | -23.50740 | 166.95799 | 38532 ft | 391 kts | 158° |
| 2026-04-26 05:33 | -23.53099 | 166.97221 | 38821 ft | 392 kts | 158° |
| 2026-04-26 05:33 | -23.55481 | 166.98657 | 39070 ft | 392 kts | 158° |
| 2026-04-26 05:34 | -23.57867 | 167.00095 | 39314 ft | 392 kts | 158° |
| 2026-04-26 05:34 | -23.60253 | 167.01535 | 39551 ft | 392 kts | 158° |
| 2026-04-26 05:34 | -23.62639 | 167.02975 | 39773 ft | 392 kts | 158° |
| 2026-04-26 05:34 | -23.65024 | 167.04416 | 39987 ft | 392 kts | 158° |
| 2026-04-26 05:35 | -23.67409 | 167.05856 | 40195 ft | 392 kts | 158° |
| 2026-04-26 05:35 | -23.69797 | 167.07299 | 40399 ft | 392 kts | 158° |
| 2026-04-26 05:35 | -23.72186 | 167.08743 | 40597 ft | 392 kts | 158° |
| 2026-04-26 05:35 | -23.74570 | 167.10185 | 40786 ft | 392 kts | 158° |
| 2026-04-26 05:36 | -23.76953 | 167.11627 | 40951 ft | 392 kts | 158° |
| 2026-04-26 05:36 | -23.79361 | 167.13081 | 40948 ft | 399 kts | 158° |
| 2026-04-26 05:36 | -23.84263 | 167.16051 | 40955 ft | 412 kts | 157° |
| 2026-04-26 05:37 | -23.89377 | 167.19152 | 40954 ft | 428 kts | 157° |
| 2026-04-26 05:37 | -23.94665 | 167.22361 | 40954 ft | 441 kts | 156° |
| 2026-04-26 05:38 | -24.00112 | 167.25671 | 40960 ft | 454 kts | 156° |
| 2026-04-26 05:38 | -24.05721 | 167.29080 | 40958 ft | 467 kts | 156° |
| 2026-04-26 05:39 | -24.11482 | 167.32587 | 40959 ft | 480 kts | 156° |
| 2026-04-26 05:39 | -24.17352 | 167.36164 | 40959 ft | 492 kts | 155° |
| 2026-04-26 05:40 | -24.23419 | 167.39865 | 40963 ft | 504 kts | 155° |
| 2026-04-26 05:40 | -24.29618 | 167.43650 | 40970 ft | 516 kts | 155° |
| 2026-04-26 05:41 | -24.35951 | 167.47521 | 40968 ft | 526 kts | 155° |
| 2026-04-26 05:41 | -24.42411 | 167.51476 | 40964 ft | 537 kts | 155° |
| 2026-04-26 05:42 | -24.47873 | 167.54822 | 40968 ft | 545 kts | 155° |
| 2026-04-26 05:42 | -24.54561 | 167.58924 | 40967 ft | 555 kts | 155° |
| 2026-04-26 05:43 | -24.61350 | 167.63094 | 40962 ft | 563 kts | 155° |
| 2026-04-26 05:43 | -24.68997 | 167.68612 | 40963 ft | 570 kts | 140° |
| 2026-04-26 05:44 | -24.73460 | 167.73999 | 40965 ft | 568 kts | 125° |
| 2026-04-26 05:44 | -24.77173 | 167.81533 | 40972 ft | 564 kts | 108° |
| 2026-04-26 05:45 | -24.78988 | 167.89860 | 40970 ft | 556 kts | 90° |
| 2026-04-26 05:45 | -24.79095 | 167.98313 | 40963 ft | 551 kts | 82° |
| 2026-04-26 05:46 | -24.79011 | 168.06652 | 40963 ft | 548 kts | 82° |
| 2026-04-26 05:46 | -24.78913 | 168.15022 | 40951 ft | 546 kts | 82° |
| 2026-04-26 05:47 | -24.78813 | 168.23386 | 40955 ft | 547 kts | 82° |
| 2026-04-26 05:47 | -24.78709 | 168.31769 | 40958 ft | 549 kts | 82° |
| 2026-04-26 05:48 | -24.78600 | 168.40180 | 40957 ft | 551 kts | 82° |
| 2026-04-26 05:48 | -24.78486 | 168.48568 | 40960 ft | 552 kts | 82° |
| 2026-04-26 05:49 | -24.78306 | 168.61214 | 40962 ft | 549 kts | 82° |
| 2026-04-26 05:50 | -24.78181 | 168.69591 | 40954 ft | 546 kts | 82° |
| 2026-04-26 05:50 | -24.78049 | 168.77955 | 40964 ft | 549 kts | 81° |
| 2026-04-26 05:51 | -24.77914 | 168.86385 | 40964 ft | 553 kts | 82° |
| 2026-04-26 05:51 | -24.77776 | 168.94822 | 40964 ft | 550 kts | 81° |
| 2026-04-26 05:52 | -24.77630 | 169.03214 | 40963 ft | 547 kts | 81° |
| 2026-04-26 05:52 | -24.77481 | 169.11578 | 40961 ft | 547 kts | 81° |
| 2026-04-26 05:53 | -24.77327 | 169.19963 | 40967 ft | 549 kts | 81° |
| 2026-04-26 05:53 | -24.77168 | 169.28387 | 40970 ft | 552 kts | 81° |
| 2026-04-26 05:54 | -24.77005 | 169.36836 | 40970 ft | 551 kts | 81° |
| 2026-04-26 05:54 | -24.76837 | 169.45247 | 40962 ft | 547 kts | 81° |
| 2026-04-26 05:55 | -24.76665 | 169.53547 | 40958 ft | 545 kts | 81° |
| 2026-04-26 05:55 | -24.76487 | 169.61912 | 40952 ft | 548 kts | 81° |
| 2026-04-26 05:56 | -24.76306 | 169.70320 | 40966 ft | 551 kts | 81° |
| 2026-04-26 05:56 | -24.76120 | 169.78738 | 40972 ft | 550 kts | 81° |
| 2026-04-26 05:57 | -24.75929 | 169.87121 | 40961 ft | 546 kts | 81° |
| 2026-04-26 05:57 | -24.75733 | 169.95464 | 40961 ft | 546 kts | 81° |
| 2026-04-26 05:58 | -24.75532 | 170.03835 | 40966 ft | 549 kts | 81° |
| 2026-04-26 05:58 | -24.75327 | 170.12254 | 40971 ft | 551 kts | 81° |
| 2026-04-26 05:59 | -24.75119 | 170.20670 | 40966 ft | 549 kts | 80° |
| 2026-04-26 05:59 | -24.74902 | 170.29041 | 40962 ft | 546 kts | 80° |
| 2026-04-26 06:00 | -24.74684 | 170.37392 | 40966 ft | 547 kts | 80° |
| 2026-04-26 06:00 | -24.74460 | 170.45737 | 40970 ft | 551 kts | 80° |
| 2026-04-26 06:01 | -24.74232 | 170.54186 | 40957 ft | 551 kts | 80° |
| 2026-04-26 06:01 | -24.74000 | 170.62581 | 40960 ft | 547 kts | 80° |
| 2026-04-26 06:02 | -24.73761 | 170.70925 | 40962 ft | 546 kts | 80° |
| 2026-04-26 06:02 | -24.73520 | 170.79239 | 40967 ft | 549 kts | 80° |
| 2026-04-26 06:03 | -24.73272 | 170.87667 | 40956 ft | 552 kts | 80° |
| 2026-04-26 06:03 | -24.73018 | 170.96127 | 40954 ft | 555 kts | 81° |
| 2026-04-26 06:04 | -24.72760 | 171.04614 | 40953 ft | 554 kts | 81° |
| 2026-04-26 06:04 | -24.72496 | 171.13063 | 40962 ft | 551 kts | 81° |
| 2026-04-26 06:05 | -24.72229 | 171.21463 | 40963 ft | 549 kts | 81° |
| 2026-04-26 06:05 | -24.71956 | 171.29882 | 40961 ft | 552 kts | 81° |
| 2026-04-26 06:06 | -24.71677 | 171.38370 | 40974 ft | 558 kts | 81° |
| 2026-04-26 06:06 | -24.71396 | 171.46898 | 40978 ft | 556 kts | 81° |
| 2026-04-26 06:07 | -24.71108 | 171.55325 | 40973 ft | 553 kts | 81° |
| 2026-04-26 06:07 | -24.70816 | 171.63761 | 40970 ft | 553 kts | 81° |
| 2026-04-26 06:08 | -24.70519 | 171.72232 | 40974 ft | 555 kts | 80° |
| 2026-04-26 06:08 | -24.70215 | 171.80735 | 40975 ft | 558 kts | 80° |
| 2026-04-26 06:09 | -24.69908 | 171.89262 | 40976 ft | 556 kts | 80° |
| 2026-04-26 06:09 | -24.69596 | 171.97737 | 40967 ft | 554 kts | 80° |
| 2026-04-26 06:10 | -24.69281 | 172.06177 | 40971 ft | 550 kts | 80° |
| 2026-04-26 06:10 | -24.68962 | 172.14543 | 40963 ft | 552 kts | 80° |
| 2026-04-26 06:11 | -24.68635 | 172.23060 | 40963 ft | 555 kts | 80° |
| 2026-04-26 06:11 | -24.68306 | 172.31501 | 40963 ft | 556 kts | 80° |
| 2026-04-26 06:12 | -24.67971 | 172.39971 | 40961 ft | 553 kts | 80° |
| 2026-04-26 06:12 | -24.67633 | 172.48394 | 40957 ft | 549 kts | 80° |
| 2026-04-26 06:13 | -24.67291 | 172.56766 | 40953 ft | 549 kts | 80° |
| 2026-04-26 06:13 | -24.66944 | 172.65175 | 40957 ft | 552 kts | 80° |
| 2026-04-26 06:14 | -24.66590 | 172.73639 | 40959 ft | 554 kts | 80° |
| 2026-04-26 06:14 | -24.66233 | 172.82084 | 40957 ft | 552 kts | 80° |
| 2026-04-26 06:15 | -24.65871 | 172.90499 | 40954 ft | 549 kts | 80° |
| 2026-04-26 06:15 | -24.65506 | 172.98886 | 40952 ft | 549 kts | 80° |
| 2026-04-26 06:16 | -24.65137 | 173.07234 | 40952 ft | 552 kts | 80° |
| 2026-04-26 06:16 | -24.64761 | 173.15670 | 40955 ft | 554 kts | 80° |
| 2026-04-26 06:17 | -24.64381 | 173.24112 | 40956 ft | 551 kts | 80° |
| 2026-04-26 06:17 | -24.63996 | 173.32503 | 40952 ft | 548 kts | 80° |
| 2026-04-26 06:18 | -24.63609 | 173.40858 | 40951 ft | 548 kts | 80° |
| 2026-04-26 06:18 | -24.63216 | 173.49246 | 40955 ft | 551 kts | 80° |
| 2026-04-26 06:19 | -24.62816 | 173.57683 | 40956 ft | 553 kts | 81° |
| 2026-04-26 06:19 | -24.62413 | 173.66106 | 40952 ft | 552 kts | 81° |
| 2026-04-26 06:20 | -24.62003 | 173.74529 | 40951 ft | 550 kts | 80° |
| 2026-04-26 06:20 | -24.61592 | 173.82918 | 40949 ft | 549 kts | 80° |
| 2026-04-26 06:21 | -24.61175 | 173.91297 | 40943 ft | 549 kts | 80° |
| 2026-04-26 06:21 | -24.60756 | 173.99658 | 40958 ft | 547 kts | 81° |
| 2026-04-26 06:22 | -24.60331 | 174.07999 | 40955 ft | 548 kts | 81° |
| 2026-04-26 06:22 | -24.59904 | 174.16330 | 40959 ft | 551 kts | 81° |
| 2026-04-26 06:23 | -24.59467 | 174.24760 | 40969 ft | 553 kts | 81° |
| 2026-04-26 06:23 | -24.59026 | 174.33172 | 40959 ft | 550 kts | 81° |
| 2026-04-26 06:24 | -24.58582 | 174.41551 | 40960 ft | 547 kts | 81° |
| 2026-04-26 06:24 | -24.58133 | 174.49915 | 40960 ft | 549 kts | 81° |
| 2026-04-26 06:25 | -24.57679 | 174.58311 | 40968 ft | 552 kts | 81° |
| 2026-04-26 06:25 | -24.57218 | 174.66746 | 40971 ft | 553 kts | 81° |
| 2026-04-26 06:26 | -24.56755 | 174.75159 | 40966 ft | 550 kts | 81° |
| 2026-04-26 06:26 | -24.56288 | 174.83519 | 40964 ft | 547 kts | 81° |
| 2026-04-26 06:27 | -24.55816 | 174.91865 | 40968 ft | 549 kts | 81° |
| 2026-04-26 06:27 | -24.55342 | 175.00195 | 40967 ft | 552 kts | 81° |
| 2026-04-26 06:28 | -24.54859 | 175.08620 | 40963 ft | 552 kts | 81° |
| 2026-04-26 06:28 | -24.54372 | 175.17028 | 40969 ft | 550 kts | 81° |
| 2026-04-26 06:29 | -24.53961 | 175.24043 | 40964 ft | 549 kts | 81° |
| 2026-04-26 06:29 | -24.53467 | 175.32408 | 40965 ft | 548 kts | 81° |
| 2026-04-26 06:30 | -24.52973 | 175.40688 | 40968 ft | 547 kts | 81° |
| 2026-04-26 06:30 | -24.52469 | 175.49049 | 40976 ft | 550 kts | 81° |
| 2026-04-26 06:31 | -24.51959 | 175.57474 | 40978 ft | 553 kts | 81° |
| 2026-04-26 06:31 | -24.51446 | 175.65869 | 40982 ft | 550 kts | 81° |
| 2026-04-26 06:32 | -24.50928 | 175.74223 | 40983 ft | 547 kts | 81° |
| 2026-04-26 06:32 | -24.50408 | 175.82549 | 40976 ft | 548 kts | 81° |
| 2026-04-26 06:33 | -24.49881 | 175.90932 | 40981 ft | 552 kts | 81° |
| 2026-04-26 06:33 | -24.49347 | 175.99355 | 40985 ft | 553 kts | 81° |
| 2026-04-26 06:34 | -24.48809 | 176.07762 | 40990 ft | 550 kts | 81° |
| 2026-04-26 06:34 | -24.48268 | 176.16120 | 40987 ft | 548 kts | 81° |
| 2026-04-26 06:35 | -24.47725 | 176.24456 | 40989 ft | 547 kts | 81° |
| 2026-04-26 06:35 | -24.47179 | 176.32756 | 40990 ft | 549 kts | 81° |
| 2026-04-26 06:36 | -24.46624 | 176.41135 | 40991 ft | 550 kts | 81° |
| 2026-04-26 06:36 | -24.46063 | 176.49532 | 40996 ft | 552 kts | 81° |
| 2026-04-26 06:37 | -24.45500 | 176.57884 | 40997 ft | 551 kts | 80° |
| 2026-04-26 06:37 | -24.44934 | 176.66258 | 40994 ft | 548 kts | 80° |
| 2026-04-26 06:38 | -24.44361 | 176.74579 | 40989 ft | 546 kts | 80° |
| 2026-04-26 06:38 | -24.43786 | 176.82906 | 40992 ft | 548 kts | 80° |
| 2026-04-26 06:39 | -24.43204 | 176.91268 | 40997 ft | 550 kts | 80° |
| 2026-04-26 06:39 | -24.42614 | 176.99674 | 40998 ft | 553 kts | 80° |
| 2026-04-26 06:40 | -24.42020 | 177.08094 | 41000 ft | 552 kts | 80° |
| 2026-04-26 06:40 | -24.41422 | 177.16475 | 41000 ft | 550 kts | 80° |
| 2026-04-26 06:41 | -24.40823 | 177.24811 | 40992 ft | 548 kts | 80° |
| 2026-04-26 06:41 | -24.40218 | 177.33161 | 40996 ft | 550 kts | 80° |
| 2026-04-26 06:42 | -24.39606 | 177.41552 | 40995 ft | 554 kts | 80° |
| 2026-04-26 06:42 | -24.38986 | 177.49998 | 41001 ft | 555 kts | 80° |
| 2026-04-26 06:43 | -24.38362 | 177.58428 | 41000 ft | 552 kts | 79° |
| 2026-04-26 06:43 | -24.37741 | 177.66747 | 40996 ft | 550 kts | 79° |
| 2026-04-26 06:44 | -24.37106 | 177.75173 | 40997 ft | 552 kts | 79° |
| 2026-04-26 06:44 | -24.36474 | 177.83532 | 40990 ft | 554 kts | 80° |
| 2026-04-26 06:45 | -24.35832 | 177.91949 | 40990 ft | 554 kts | 80° |
| 2026-04-26 06:45 | -24.35186 | 178.00355 | 40996 ft | 553 kts | 80° |
| 2026-04-26 06:46 | -24.34535 | 178.08758 | 40991 ft | 553 kts | 80° |
| 2026-04-26 06:46 | -24.33880 | 178.17160 | 40990 ft | 552 kts | 80° |
| 2026-04-26 06:47 | -24.33221 | 178.25551 | 40989 ft | 552 kts | 80° |
| 2026-04-26 06:47 | -24.32557 | 178.33942 | 40986 ft | 552 kts | 80° |
| 2026-04-26 06:48 | -24.31894 | 178.42268 | 40986 ft | 551 kts | 80° |
| 2026-04-26 06:48 | -24.31223 | 178.50638 | 40988 ft | 551 kts | 80° |
| 2026-04-26 06:49 | -24.30548 | 178.59007 | 40985 ft | 550 kts | 80° |
| 2026-04-26 06:49 | -24.29868 | 178.67360 | 40984 ft | 550 kts | 80° |
| 2026-04-26 06:50 | -24.29184 | 178.75718 | 40987 ft | 550 kts | 80° |
| 2026-04-26 06:50 | -24.28496 | 178.84064 | 40984 ft | 550 kts | 80° |
| 2026-04-26 06:51 | -24.27804 | 178.92399 | 40984 ft | 549 kts | 80° |
| 2026-04-26 06:51 | -24.26759 | 179.04895 | 40983 ft | 548 kts | 80° |
| 2026-04-26 06:52 | -24.26062 | 179.13156 | 40983 ft | 548 kts | 80° |
| 2026-04-26 06:52 | -24.25355 | 179.21479 | 40980 ft | 548 kts | 80° |
| 2026-04-26 06:53 | -24.24645 | 179.29783 | 40981 ft | 548 kts | 80° |
| 2026-04-26 06:53 | -24.23928 | 179.38119 | 40984 ft | 551 kts | 80° |
| 2026-04-26 06:54 | -24.23203 | 179.46497 | 40989 ft | 553 kts | 80° |
| 2026-04-26 06:54 | -24.22474 | 179.54868 | 40988 ft | 550 kts | 80° |
| 2026-04-26 06:55 | -24.21743 | 179.63203 | 40975 ft | 548 kts | 80° |
| 2026-04-26 06:55 | -24.21015 | 179.71456 | 40976 ft | 547 kts | 80° |
| 2026-04-26 06:56 | -24.20276 | 179.79767 | 40981 ft | 550 kts | 80° |
| 2026-04-26 06:56 | -24.19530 | 179.88123 | 40976 ft | 552 kts | 80° |
| 2026-04-26 06:57 | -24.18777 | 179.96503 | 40977 ft | 551 kts | 80° |
| 2026-04-26 06:57 | -24.18024 | -179.95165 | 40981 ft | 547 kts | 80° |
| 2026-04-26 06:58 | -24.17271 | -179.86906 | 40977 ft | 543 kts | 80° |
| 2026-04-26 06:58 | -24.16515 | -179.78652 | 40977 ft | 547 kts | 80° |
| 2026-04-26 06:59 | -24.15750 | -179.70346 | 40982 ft | 550 kts | 80° |
| 2026-04-26 06:59 | -24.14985 | -179.62085 | 40985 ft | 547 kts | 80° |
| 2026-04-26 07:00 | -24.14214 | -179.53818 | 40981 ft | 545 kts | 80° |
| 2026-04-26 07:00 | -24.13442 | -179.45578 | 40982 ft | 544 kts | 79° |
| 2026-04-26 07:01 | -24.12661 | -179.37310 | 40983 ft | 547 kts | 80° |
| 2026-04-26 07:01 | -24.11874 | -179.29006 | 40986 ft | 549 kts | 80° |
| 2026-04-26 07:02 | -24.11082 | -179.20695 | 40986 ft | 547 kts | 79° |
| 2026-04-26 07:02 | -24.10292 | -179.12470 | 40983 ft | 544 kts | 79° |
| 2026-04-26 07:03 | -24.09498 | -179.04242 | 40978 ft | 543 kts | 79° |
| 2026-04-26 07:03 | -24.08698 | -178.96004 | 40980 ft | 546 kts | 79° |
| 2026-04-26 07:04 | -24.07890 | -178.87719 | 40985 ft | 548 kts | 79° |
| 2026-04-26 07:04 | -24.07074 | -178.79410 | 40986 ft | 550 kts | 79° |
| 2026-04-26 07:05 | -24.06255 | -178.71107 | 40973 ft | 547 kts | 80° |
| 2026-04-26 07:05 | -24.05443 | -178.62911 | 40977 ft | 537 kts | 80° |
| 2026-04-26 07:06 | -24.04625 | -178.54750 | 40984 ft | 542 kts | 80° |
| 2026-04-26 07:06 | -24.03806 | -178.46572 | 40994 ft | 545 kts | 80° |
| 2026-04-26 07:07 | -24.02979 | -178.38362 | 40991 ft | 541 kts | 80° |
| 2026-04-26 07:07 | -24.02151 | -178.30208 | 40989 ft | 538 kts | 80° |
| 2026-04-26 07:08 | -24.01318 | -178.22050 | 40990 ft | 541 kts | 80° |
| 2026-04-26 07:08 | -24.00477 | -178.13843 | 40997 ft | 544 kts | 80° |
| 2026-04-26 07:09 | -23.99635 | -178.05667 | 41000 ft | 543 kts | 80° |
| 2026-04-26 07:09 | -23.98787 | -177.97477 | 40997 ft | 540 kts | 80° |
| 2026-04-26 07:11 | -23.96654 | -177.77090 | 40995 ft | 540 kts | 80° |
| 2026-04-26 07:11 | -23.95791 | -177.68914 | 40999 ft | 541 kts | 80° |
| 2026-04-26 07:12 | -23.94925 | -177.60736 | 41001 ft | 542 kts | 80° |
| 2026-04-26 07:12 | -23.94049 | -177.52528 | 41006 ft | 544 kts | 80° |
| 2026-04-26 07:13 | -23.93169 | -177.44309 | 41004 ft | 545 kts | 80° |
| 2026-04-26 07:13 | -23.92283 | -177.36086 | 41008 ft | 544 kts | 80° |
| 2026-04-26 07:14 | -23.91396 | -177.27889 | 41004 ft | 542 kts | 80° |
| 2026-04-26 07:14 | -23.90507 | -177.19715 | 41006 ft | 542 kts | 80° |
| 2026-04-26 07:15 | -23.89764 | -177.12917 | 41004 ft | 542 kts | 80° |
| 2026-04-26 07:15 | -23.88866 | -177.04737 | 41007 ft | 542 kts | 80° |
| 2026-04-26 07:16 | -23.87964 | -176.96558 | 41010 ft | 542 kts | 80° |
| 2026-04-26 07:16 | -23.87054 | -176.88357 | 41010 ft | 545 kts | 80° |
| 2026-04-26 07:17 | -23.86135 | -176.80108 | 41015 ft | 548 kts | 80° |
| 2026-04-26 07:17 | -23.85217 | -176.71900 | 41019 ft | 547 kts | 80° |
| 2026-04-26 07:18 | -23.84293 | -176.63686 | 41011 ft | 543 kts | 80° |
| 2026-04-26 07:18 | -23.83367 | -176.55506 | 41009 ft | 544 kts | 80° |
| 2026-04-26 07:19 | -23.82430 | -176.47256 | 41014 ft | 550 kts | 80° |
| 2026-04-26 07:19 | -23.81483 | -176.38951 | 41019 ft | 549 kts | 80° |
| 2026-04-26 07:20 | -23.80537 | -176.30704 | 41014 ft | 545 kts | 80° |
| 2026-04-26 07:20 | -23.79591 | -176.22496 | 41011 ft | 545 kts | 80° |
| 2026-04-26 07:21 | -23.78636 | -176.14258 | 41013 ft | 549 kts | 80° |
| 2026-04-26 07:21 | -23.77671 | -176.05959 | 41019 ft | 553 kts | 80° |
| 2026-04-26 07:22 | -23.76701 | -175.97653 | 41019 ft | 550 kts | 80° |
| 2026-04-26 07:22 | -23.75737 | -175.89445 | 41016 ft | 547 kts | 80° |
| 2026-04-26 07:23 | -23.74764 | -175.81210 | 41016 ft | 548 kts | 80° |
| 2026-04-26 07:23 | -23.73784 | -175.72938 | 41019 ft | 551 kts | 80° |
| 2026-04-26 07:24 | -23.72796 | -175.64636 | 41026 ft | 552 kts | 80° |
| 2026-04-26 07:24 | -23.71805 | -175.56351 | 41024 ft | 549 kts | 80° |
| 2026-04-26 07:25 | -23.70812 | -175.48093 | 41021 ft | 547 kts | 80° |
| 2026-04-26 07:25 | -23.69819 | -175.39870 | 41016 ft | 548 kts | 80° |
| 2026-04-26 07:26 | -23.68813 | -175.31582 | 41020 ft | 554 kts | 80° |
| 2026-04-26 07:26 | -23.67800 | -175.23258 | 41027 ft | 551 kts | 80° |
| 2026-04-26 07:27 | -23.66797 | -175.15061 | 41017 ft | 546 kts | 80° |
| 2026-04-26 07:27 | -23.65786 | -175.06850 | 41027 ft | 547 kts | 80° |
| 2026-04-26 07:28 | -23.64768 | -174.98600 | 41020 ft | 551 kts | 81° |
| 2026-04-26 07:28 | -23.63738 | -174.90295 | 41024 ft | 552 kts | 81° |
| 2026-04-26 07:29 | -23.62706 | -174.82007 | 41021 ft | 550 kts | 81° |
| 2026-04-26 07:29 | -23.61674 | -174.73762 | 41021 ft | 547 kts | 81° |
| 2026-04-26 07:30 | -23.60639 | -174.65531 | 41023 ft | 548 kts | 81° |
| 2026-04-26 07:30 | -23.59596 | -174.57262 | 41027 ft | 553 kts | 81° |
| 2026-04-26 07:31 | -23.58542 | -174.48948 | 41035 ft | 553 kts | 81° |
| 2026-04-26 07:31 | -23.57494 | -174.40719 | 41032 ft | 550 kts | 81° |
| 2026-04-26 07:32 | -23.56435 | -174.32433 | 41027 ft | 548 kts | 80° |
| 2026-04-26 07:32 | -23.55382 | -174.24238 | 41032 ft | 551 kts | 81° |
| 2026-04-26 07:33 | -23.54313 | -174.15946 | 41033 ft | 554 kts | 81° |
| 2026-04-26 07:33 | -23.53236 | -174.07632 | 41032 ft | 552 kts | 81° |
| 2026-04-26 07:34 | -23.52160 | -173.99362 | 41033 ft | 550 kts | 81° |
| 2026-04-26 07:34 | -23.51084 | -173.91127 | 41033 ft | 548 kts | 80° |
| 2026-04-26 07:35 | -23.50002 | -173.82877 | 41035 ft | 551 kts | 81° |
| 2026-04-26 07:35 | -23.48909 | -173.74580 | 41037 ft | 554 kts | 81° |
| 2026-04-26 07:36 | -23.47818 | -173.66328 | 41033 ft | 552 kts | 81° |
| 2026-04-26 07:36 | -23.46720 | -173.58061 | 41033 ft | 549 kts | 80° |
| 2026-04-26 07:37 | -23.45623 | -173.49840 | 41034 ft | 548 kts | 81° |
| 2026-04-26 07:37 | -23.44522 | -173.41614 | 41039 ft | 551 kts | 81° |
| 2026-04-26 07:38 | -23.43409 | -173.33337 | 41041 ft | 553 kts | 81° |
| 2026-04-26 07:38 | -23.42291 | -173.25057 | 41044 ft | 552 kts | 81° |
| 2026-04-26 07:39 | -23.41173 | -173.16812 | 41040 ft | 550 kts | 81° |
| 2026-04-26 07:39 | -23.40052 | -173.08578 | 41034 ft | 548 kts | 81° |
| 2026-04-26 07:40 | -23.38933 | -173.00383 | 41032 ft | 547 kts | 81° |
| 2026-04-26 07:40 | -23.37805 | -172.92165 | 41036 ft | 550 kts | 81° |
| 2026-04-26 07:41 | -23.36677 | -172.83974 | 41036 ft | 552 kts | 81° |
| 2026-04-26 07:41 | -23.35534 | -172.75709 | 41030 ft | 552 kts | 81° |
| 2026-04-26 07:42 | -23.34393 | -172.67488 | 41038 ft | 546 kts | 81° |
| 2026-04-26 07:42 | -23.33253 | -172.59313 | 41038 ft | 547 kts | 81° |
| 2026-04-26 07:43 | -23.32104 | -172.51099 | 41041 ft | 551 kts | 81° |
| 2026-04-26 07:43 | -23.30946 | -172.42855 | 41041 ft | 550 kts | 81° |
| 2026-04-26 07:44 | -23.29787 | -172.34642 | 41039 ft | 547 kts | 81° |
| 2026-04-26 07:44 | -23.28632 | -172.26478 | 41036 ft | 546 kts | 81° |
| 2026-04-26 07:45 | -23.27477 | -172.18357 | 41039 ft | 548 kts | 81° |
| 2026-04-26 07:45 | -23.26308 | -172.10157 | 41048 ft | 550 kts | 81° |
| 2026-04-26 07:46 | -23.25128 | -172.01916 | 41045 ft | 551 kts | 81° |
| 2026-04-26 07:46 | -23.23946 | -171.93690 | 41046 ft | 549 kts | 81° |
| 2026-04-26 07:47 | -23.22765 | -171.85506 | 41044 ft | 547 kts | 81° |
| 2026-04-26 07:47 | -23.21582 | -171.77340 | 41048 ft | 546 kts | 80° |
| 2026-04-26 07:48 | -23.20396 | -171.69183 | 41049 ft | 547 kts | 80° |
| 2026-04-26 07:48 | -23.19213 | -171.61070 | 41043 ft | 546 kts | 81° |
| 2026-04-26 07:49 | -23.18017 | -171.52905 | 41043 ft | 546 kts | 81° |
| 2026-04-26 07:49 | -23.16818 | -171.44747 | 41045 ft | 546 kts | 81° |
| 2026-04-26 07:50 | -23.15012 | -171.32516 | 41045 ft | 546 kts | 80° |
| 2026-04-26 07:50 | -23.13803 | -171.24370 | 41045 ft | 546 kts | 81° |
| 2026-04-26 07:51 | -23.12592 | -171.16234 | 41045 ft | 546 kts | 81° |
| 2026-04-26 07:51 | -23.11374 | -171.08086 | 41045 ft | 546 kts | 81° |
| 2026-04-26 07:52 | -23.10163 | -171.00003 | 41046 ft | 546 kts | 80° |
| 2026-04-26 07:52 | -23.08938 | -170.91864 | 40981 ft | 546 kts | 80° |
| 2026-04-26 07:53 | -23.08317 | -170.87750 | 39368 ft | 561 kts | 80° |
| 2026-04-26 07:53 | -23.07677 | -170.83521 | 37489 ft | 574 kts | 80° |
| 2026-04-26 07:53 | -23.07024 | -170.79211 | 35633 ft | 581 kts | 79° |
| 2026-04-26 07:53 | -23.06366 | -170.74872 | 33897 ft | 584 kts | 79° |
| 2026-04-26 07:54 | -23.05705 | -170.70520 | 32028 ft | 583 kts | 79° |
| 2026-04-26 07:54 | -23.05046 | -170.66195 | 30263 ft | 579 kts | 79° |
| 2026-04-26 07:54 | -23.04390 | -170.61899 | 28321 ft | 573 kts | 79° |
| 2026-04-26 07:54 | -23.03754 | -170.57732 | 26461 ft | 523 kts | 79° |
| 2026-04-26 07:55 | -23.03206 | -170.54115 | 24697 ft | 459 kts | 79° |
| 2026-04-26 07:55 | -23.02691 | -170.50784 | 22935 ft | 433 kts | 79° |
| 2026-04-26 07:55 | -23.02213 | -170.47698 | 21067 ft | 398 kts | 80° |
| 2026-04-26 07:55 | -23.01773 | -170.44841 | 19334 ft | 370 kts | 81° |
| 2026-04-26 07:56 | -23.01363 | -170.42173 | 17571 ft | 348 kts | 81° |
| 2026-04-26 07:56 | -23.00972 | -170.39631 | 15748 ft | 335 kts | 81° |
| 2026-04-26 07:56 | -23.00592 | -170.37173 | 14032 ft | 325 kts | 81° |
| 2026-04-26 07:56 | -23.00223 | -170.34790 | 12196 ft | 315 kts | 81° |
| 2026-04-26 07:57 | -22.99865 | -170.32473 | 10441 ft | 308 kts | 81° |
| 2026-04-26 07:57 | -22.99515 | -170.30209 | 8734 ft | 300 kts | 81° |
| 2026-04-26 07:57 | -22.99171 | -170.27991 | 8222 ft | 301 kts | 82° |
| 2026-04-26 07:57 | -22.98825 | -170.25753 | 8207 ft | 301 kts | 82° |
| 2026-04-26 07:58 | -22.98476 | -170.23503 | 8210 ft | 303 kts | 81° |
| 2026-04-26 07:58 | -22.98127 | -170.21253 | 8208 ft | 302 kts | 81° |
| 2026-04-26 07:58 | -22.97775 | -170.19000 | 8209 ft | 302 kts | 82° |
| 2026-04-26 07:58 | -22.97428 | -170.16771 | 8207 ft | 307 kts | 82° |
| 2026-04-26 07:59 | -22.97073 | -170.14490 | 8206 ft | 305 kts | 82° |
| 2026-04-26 07:59 | -22.96721 | -170.12237 | 8207 ft | 302 kts | 82° |
| 2026-04-26 07:59 | -22.96370 | -170.09989 | 8205 ft | 302 kts | 82° |
| 2026-04-26 07:59 | -22.96020 | -170.07738 | 8205 ft | 302 kts | 82° |
| 2026-04-26 08:00 | -22.95668 | -170.05490 | 8206 ft | 301 kts | 82° |
| 2026-04-26 08:00 | -22.95318 | -170.03260 | 8204 ft | 301 kts | 82° |
| 2026-04-26 08:00 | -22.94966 | -170.01016 | 8203 ft | 304 kts | 82° |
| 2026-04-26 08:00 | -22.94612 | -169.98750 | 8206 ft | 304 kts | 82° |
| 2026-04-26 08:01 | -22.94256 | -169.96490 | 8208 ft | 302 kts | 82° |
| 2026-04-26 08:01 | -22.93902 | -169.94240 | 8206 ft | 303 kts | 82° |
| 2026-04-26 08:01 | -22.93547 | -169.91974 | 8208 ft | 305 kts | 82° |
| 2026-04-26 08:01 | -22.93191 | -169.89717 | 8210 ft | 303 kts | 82° |
| 2026-04-26 08:02 | -22.92954 | -169.88222 | 8207 ft | 303 kts | 82° |
| 2026-04-26 08:02 | -22.92599 | -169.85969 | 8208 ft | 303 kts | 82° |
| 2026-04-26 08:02 | -22.92244 | -169.83714 | 8207 ft | 303 kts | 83° |
| 2026-04-26 08:02 | -22.91890 | -169.81471 | 8210 ft | 300 kts | 82° |
| 2026-04-26 08:03 | -22.91535 | -169.79236 | 8209 ft | 300 kts | 82° |
| 2026-04-26 08:03 | -22.91182 | -169.76998 | 8207 ft | 302 kts | 82° |
| 2026-04-26 08:03 | -22.90826 | -169.74749 | 8209 ft | 302 kts | 82° |
| 2026-04-26 08:03 | -22.90470 | -169.72511 | 8208 ft | 301 kts | 82° |
| 2026-04-26 08:04 | -22.90113 | -169.70269 | 8211 ft | 302 kts | 82° |
| 2026-04-26 08:04 | -22.89757 | -169.68015 | 8209 ft | 303 kts | 82° |
| 2026-04-26 08:04 | -22.89399 | -169.65767 | 8208 ft | 301 kts | 82° |
| 2026-04-26 08:04 | -22.89045 | -169.63551 | 8208 ft | 301 kts | 82° |
| 2026-04-26 08:05 | -22.88689 | -169.61310 | 8203 ft | 303 kts | 82° |
| 2026-04-26 08:05 | -22.88328 | -169.59052 | 8205 ft | 303 kts | 82° |
| 2026-04-26 08:05 | -22.87969 | -169.56808 | 8205 ft | 302 kts | 82° |
| 2026-04-26 08:05 | -22.87612 | -169.54564 | 8205 ft | 302 kts | 82° |
| 2026-04-26 08:06 | -22.87253 | -169.52321 | 8204 ft | 301 kts | 82° |
| 2026-04-26 08:06 | -22.86896 | -169.50094 | 8206 ft | 298 kts | 82° |
| 2026-04-26 08:06 | -22.86539 | -169.47869 | 8203 ft | 301 kts | 83° |
| 2026-04-26 08:06 | -22.86180 | -169.45623 | 8204 ft | 304 kts | 82° |
| 2026-04-26 08:07 | -22.85818 | -169.43362 | 8205 ft | 304 kts | 82° |
| 2026-04-26 08:07 | -22.85454 | -169.41109 | 8204 ft | 303 kts | 82° |
| 2026-04-26 08:07 | -22.85092 | -169.38859 | 8203 ft | 303 kts | 82° |
| 2026-04-26 08:07 | -22.84731 | -169.36606 | 8205 ft | 303 kts | 82° |
| 2026-04-26 08:08 | -22.84368 | -169.34356 | 8209 ft | 302 kts | 82° |
| 2026-04-26 08:08 | -22.84005 | -169.32114 | 8208 ft | 302 kts | 83° |
| 2026-04-26 08:08 | -22.83642 | -169.29863 | 8208 ft | 302 kts | 82° |
| 2026-04-26 08:08 | -22.83281 | -169.27625 | 8208 ft | 301 kts | 82° |
| 2026-04-26 08:09 | -22.82920 | -169.25396 | 8203 ft | 300 kts | 82° |
| 2026-04-26 08:09 | -22.82557 | -169.23154 | 8201 ft | 304 kts | 82° |
| 2026-04-26 08:09 | -22.82191 | -169.20890 | 8206 ft | 305 kts | 82° |
| 2026-04-26 08:09 | -22.81824 | -169.18629 | 8208 ft | 304 kts | 82° |
| 2026-04-26 08:10 | -22.81457 | -169.16372 | 8206 ft | 305 kts | 82° |
| 2026-04-26 08:10 | -22.81088 | -169.14099 | 8208 ft | 306 kts | 82° |
| 2026-04-26 08:10 | -22.80724 | -169.11857 | 8213 ft | 304 kts | 82° |
| 2026-04-26 08:10 | -22.80358 | -169.09615 | 8206 ft | 302 kts | 82° |
| 2026-04-26 08:11 | -22.79993 | -169.07373 | 8205 ft | 302 kts | 82° |
| 2026-04-26 08:11 | -22.79627 | -169.05120 | 8208 ft | 303 kts | 82° |
| 2026-04-26 08:11 | -22.79258 | -169.02868 | 8209 ft | 303 kts | 82° |
| 2026-04-26 08:11 | -22.78890 | -169.00623 | 8208 ft | 303 kts | 82° |
| 2026-04-26 08:12 | -22.78523 | -168.98367 | 8209 ft | 304 kts | 82° |
| 2026-04-26 08:12 | -22.78155 | -168.96117 | 8210 ft | 304 kts | 82° |
| 2026-04-26 08:12 | -22.77785 | -168.93862 | 8210 ft | 304 kts | 82° |
| 2026-04-26 08:12 | -22.77413 | -168.91598 | 8209 ft | 306 kts | 82° |
| 2026-04-26 08:13 | -22.77041 | -168.89326 | 8210 ft | 305 kts | 82° |
| 2026-04-26 08:13 | -22.76675 | -168.87107 | 8207 ft | 300 kts | 82° |
| 2026-04-26 08:13 | -22.76309 | -168.84876 | 8202 ft | 302 kts | 82° |
| 2026-04-26 08:13 | -22.75941 | -168.82632 | 8206 ft | 303 kts | 82° |
| 2026-04-26 08:14 | -22.75570 | -168.80383 | 8208 ft | 302 kts | 82° |
| 2026-04-26 08:14 | -22.75201 | -168.78150 | 8205 ft | 301 kts | 82° |
| 2026-04-26 08:14 | -22.74832 | -168.75914 | 8203 ft | 302 kts | 82° |
| 2026-04-26 08:14 | -22.74462 | -168.73668 | 8206 ft | 303 kts | 82° |
| 2026-04-26 08:15 | -22.74091 | -168.71426 | 8207 ft | 302 kts | 82° |
| 2026-04-26 08:15 | -22.73720 | -168.69186 | 8206 ft | 302 kts | 82° |
| 2026-04-26 08:15 | -22.73347 | -168.66929 | 8209 ft | 304 kts | 82° |
| 2026-04-26 08:15 | -22.72979 | -168.64705 | 8213 ft | 303 kts | 82° |
| 2026-04-26 08:16 | -22.72606 | -168.62464 | 8214 ft | 302 kts | 82° |
| 2026-04-26 08:16 | -22.72234 | -168.60224 | 8210 ft | 302 kts | 82° |
| 2026-04-26 08:16 | -22.71862 | -168.57986 | 8211 ft | 301 kts | 81° |
| 2026-04-26 08:16 | -22.71492 | -168.55763 | 8211 ft | 300 kts | 82° |
| 2026-04-26 08:17 | -22.71120 | -168.53526 | 8207 ft | 303 kts | 82° |
| 2026-04-26 08:17 | -22.70746 | -168.51274 | 8212 ft | 304 kts | 82° |
| 2026-04-26 08:17 | -22.70369 | -168.49021 | 8213 ft | 304 kts | 82° |
| 2026-04-26 08:17 | -22.69992 | -168.46763 | 8210 ft | 304 kts | 82° |
| 2026-04-26 08:18 | -22.69614 | -168.44501 | 8205 ft | 305 kts | 82° |
| 2026-04-26 08:18 | -22.69236 | -168.42237 | 8209 ft | 305 kts | 82° |
| 2026-04-26 08:18 | -22.68860 | -168.39995 | 8207 ft | 302 kts | 82° |
| 2026-04-26 08:18 | -22.68485 | -168.37759 | 8204 ft | 301 kts | 82° |
| 2026-04-26 08:19 | -22.68111 | -168.35521 | 8213 ft | 302 kts | 82° |
| 2026-04-26 08:19 | -22.67734 | -168.33279 | 8204 ft | 302 kts | 82° |
| 2026-04-26 08:19 | -22.67363 | -168.31074 | 8205 ft | 301 kts | 83° |
| 2026-04-26 08:19 | -22.66987 | -168.28834 | 8203 ft | 303 kts | 82° |
| 2026-04-26 08:20 | -22.66611 | -168.26594 | 8209 ft | 302 kts | 82° |
| 2026-04-26 08:20 | -22.66233 | -168.24357 | 8206 ft | 303 kts | 82° |
| 2026-04-26 08:20 | -22.65854 | -168.22106 | 8208 ft | 305 kts | 83° |
| 2026-04-26 08:20 | -22.65474 | -168.19847 | 8211 ft | 304 kts | 82° |
| 2026-04-26 08:21 | -22.65094 | -168.17601 | 8209 ft | 302 kts | 81° |
| 2026-04-26 08:21 | -22.64715 | -168.15368 | 8210 ft | 301 kts | 82° |
| 2026-04-26 08:21 | -22.64338 | -168.13137 | 8210 ft | 302 kts | 82° |
| 2026-04-26 08:21 | -22.63961 | -168.10904 | 8210 ft | 300 kts | 82° |
| 2026-04-26 08:22 | -22.63585 | -168.08687 | 8205 ft | 300 kts | 82° |
| 2026-04-26 08:22 | -22.63206 | -168.06455 | 8204 ft | 303 kts | 82° |
| 2026-04-26 08:22 | -22.62825 | -168.04206 | 8207 ft | 304 kts | 82° |
| 2026-04-26 08:22 | -22.62443 | -168.01961 | 8209 ft | 302 kts | 82° |
| 2026-04-26 08:23 | -22.62062 | -167.99726 | 8209 ft | 301 kts | 82° |
| 2026-04-26 08:23 | -22.61683 | -167.97488 | 8206 ft | 304 kts | 81° |
| 2026-04-26 08:23 | -22.61300 | -167.95241 | 8212 ft | 302 kts | 81° |
| 2026-04-26 08:23 | -22.60918 | -167.93008 | 8208 ft | 302 kts | 82° |
| 2026-04-26 08:24 | -22.60537 | -167.90771 | 8210 ft | 302 kts | 82° |
| 2026-04-26 08:24 | -22.60155 | -167.88532 | 8208 ft | 302 kts | 82° |
| 2026-04-26 08:24 | -22.59774 | -167.86307 | 8210 ft | 300 kts | 82° |
| 2026-04-26 08:24 | -22.59393 | -167.84083 | 8207 ft | 301 kts | 82° |
| 2026-04-26 08:25 | -22.59015 | -167.81872 | 8210 ft | 303 kts | 82° |
| 2026-04-26 08:25 | -22.58632 | -167.79630 | 8211 ft | 303 kts | 82° |
| 2026-04-26 08:25 | -22.58246 | -167.77385 | 8208 ft | 304 kts | 81° |
| 2026-04-26 08:25 | -22.57858 | -167.75131 | 8207 ft | 305 kts | 82° |
| 2026-04-26 08:26 | -22.57472 | -167.72875 | 8207 ft | 305 kts | 81° |
| 2026-04-26 08:26 | -22.57085 | -167.70630 | 8208 ft | 302 kts | 82° |
| 2026-04-26 08:26 | -22.56699 | -167.68392 | 8203 ft | 302 kts | 82° |
| 2026-04-26 08:26 | -22.56315 | -167.66159 | 8205 ft | 302 kts | 82° |
| 2026-04-26 08:27 | -22.55930 | -167.63922 | 8212 ft | 302 kts | 81° |
| 2026-04-26 08:27 | -22.55550 | -167.61724 | 8209 ft | 302 kts | 82° |
| 2026-04-26 08:27 | -22.55165 | -167.59494 | 8208 ft | 302 kts | 82° |
| 2026-04-26 08:27 | -22.54780 | -167.57262 | 8213 ft | 302 kts | 82° |
| 2026-04-26 08:28 | -22.54394 | -167.55040 | 8210 ft | 300 kts | 82° |
| 2026-04-26 08:28 | -22.54009 | -167.52813 | 8210 ft | 302 kts | 82° |
| 2026-04-26 08:28 | -22.53621 | -167.50569 | 8212 ft | 304 kts | 81° |
| 2026-04-26 08:28 | -22.53230 | -167.48316 | 8210 ft | 305 kts | 81° |
| 2026-04-26 08:29 | -22.52838 | -167.46063 | 8212 ft | 304 kts | 81° |
| 2026-04-26 08:29 | -22.52446 | -167.43812 | 8210 ft | 305 kts | 82° |
| 2026-04-26 08:29 | -22.52056 | -167.41556 | 8212 ft | 305 kts | 81° |
| 2026-04-26 08:29 | -22.51664 | -167.39308 | 8207 ft | 303 kts | 82° |
| 2026-04-26 08:30 | -22.51274 | -167.37077 | 8205 ft | 301 kts | 82° |
| 2026-04-26 08:30 | -22.50885 | -167.34843 | 8206 ft | 302 kts | 82° |
| 2026-04-26 08:30 | -22.50496 | -167.32612 | 8206 ft | 301 kts | 81° |
| 2026-04-26 08:30 | -22.50107 | -167.30384 | 8206 ft | 302 kts | 82° |
| 2026-04-26 08:31 | -22.49721 | -167.28171 | 8206 ft | 304 kts | 82° |
| 2026-04-26 08:31 | -22.49327 | -167.25923 | 8208 ft | 304 kts | 81° |
| 2026-04-26 08:31 | -22.48934 | -167.23679 | 8208 ft | 304 kts | 82° |
| 2026-04-26 08:31 | -22.48538 | -167.21423 | 8208 ft | 305 kts | 82° |
| 2026-04-26 08:32 | -22.48143 | -167.19166 | 8211 ft | 304 kts | 82° |
| 2026-04-26 08:32 | -22.47749 | -167.16920 | 8210 ft | 303 kts | 81° |
| 2026-04-26 08:32 | -22.47356 | -167.14688 | 8208 ft | 301 kts | 82° |
| 2026-04-26 08:32 | -22.46965 | -167.12461 | 8205 ft | 302 kts | 81° |
| 2026-04-26 08:33 | -22.46573 | -167.10232 | 8205 ft | 302 kts | 81° |
| 2026-04-26 08:33 | -22.46180 | -167.08004 | 8201 ft | 301 kts | 81° |
| 2026-04-26 08:33 | -22.45787 | -167.05777 | 8201 ft | 302 kts | 82° |
| 2026-04-26 08:33 | -22.45392 | -167.03532 | 8203 ft | 304 kts | 82° |
| 2026-04-26 08:34 | -22.44997 | -167.01292 | 8211 ft | 304 kts | 81° |
| 2026-04-26 08:34 | -22.44599 | -166.99045 | 8209 ft | 304 kts | 82° |
| 2026-04-26 08:34 | -22.44201 | -166.96792 | 8209 ft | 305 kts | 82° |
| 2026-04-26 08:34 | -22.43803 | -166.94547 | 8206 ft | 303 kts | 81° |
| 2026-04-26 08:35 | -22.43412 | -166.92342 | 8202 ft | 302 kts | 82° |
| 2026-04-26 08:35 | -22.43017 | -166.90112 | 8201 ft | 302 kts | 82° |
| 2026-04-26 08:35 | -22.42623 | -166.87889 | 8200 ft | 301 kts | 82° |
| 2026-04-26 08:35 | -22.42228 | -166.85666 | 8208 ft | 301 kts | 82° |
| 2026-04-26 08:36 | -22.41833 | -166.83447 | 8204 ft | 300 kts | 82° |
| 2026-04-26 08:36 | -22.41439 | -166.81221 | 8205 ft | 303 kts | 81° |
| 2026-04-26 08:36 | -22.41039 | -166.78976 | 8206 ft | 305 kts | 81° |
| 2026-04-26 08:36 | -22.40638 | -166.76735 | 8208 ft | 303 kts | 81° |
| 2026-04-26 08:37 | -22.40239 | -166.74498 | 8205 ft | 304 kts | 82° |
| 2026-04-26 08:37 | -22.39840 | -166.72257 | 8206 ft | 304 kts | 82° |
| 2026-04-26 08:37 | -22.39440 | -166.70018 | 8202 ft | 303 kts | 81° |
| 2026-04-26 08:37 | -22.39039 | -166.67781 | 8202 ft | 303 kts | 82° |
| 2026-04-26 08:38 | -22.38639 | -166.65543 | 8203 ft | 304 kts | 81° |
| 2026-04-26 08:38 | -22.38237 | -166.63291 | 8206 ft | 305 kts | 81° |
| 2026-04-26 08:38 | -22.37835 | -166.61054 | 8201 ft | 303 kts | 81° |
| 2026-04-26 08:38 | -22.37435 | -166.58825 | 8199 ft | 303 kts | 82° |
| 2026-04-26 08:39 | -22.37035 | -166.56590 | 8201 ft | 302 kts | 81° |
| 2026-04-26 08:39 | -22.36634 | -166.54362 | 8202 ft | 302 kts | 82° |
| 2026-04-26 08:39 | -22.36232 | -166.52129 | 8202 ft | 303 kts | 82° |
| 2026-04-26 08:39 | -22.35829 | -166.49880 | 8206 ft | 305 kts | 82° |
| 2026-04-26 08:40 | -22.35424 | -166.47638 | 8210 ft | 302 kts | 81° |
| 2026-04-26 08:40 | -22.35023 | -166.45420 | 8203 ft | 301 kts | 81° |
| 2026-04-26 08:40 | -22.34623 | -166.43197 | 8201 ft | 301 kts | 82° |
| 2026-04-26 08:40 | -22.34228 | -166.41004 | 8203 ft | 302 kts | 81° |
| 2026-04-26 08:41 | -22.33826 | -166.38784 | 8202 ft | 301 kts | 81° |
| 2026-04-26 08:41 | -22.33424 | -166.36567 | 8202 ft | 301 kts | 82° |
| 2026-04-26 08:41 | -22.33023 | -166.34342 | 8203 ft | 302 kts | 81° |
| 2026-04-26 08:41 | -22.32620 | -166.32115 | 8202 ft | 302 kts | 81° |
| 2026-04-26 08:42 | -22.32216 | -166.29894 | 8199 ft | 301 kts | 81° |
| 2026-04-26 08:42 | -22.31813 | -166.27674 | 8197 ft | 303 kts | 81° |
| 2026-04-26 08:42 | -22.31409 | -166.25440 | 8199 ft | 303 kts | 81° |
| 2026-04-26 08:42 | -22.31001 | -166.23207 | 8200 ft | 303 kts | 81° |
| 2026-04-26 08:43 | -22.30596 | -166.20977 | 8203 ft | 303 kts | 81° |
| 2026-04-26 08:43 | -22.30190 | -166.18743 | 8202 ft | 303 kts | 81° |
| 2026-04-26 08:43 | -22.29784 | -166.16513 | 8204 ft | 302 kts | 81° |
| 2026-04-26 08:43 | -22.29378 | -166.14287 | 8210 ft | 301 kts | 81° |
| 2026-04-26 08:44 | -22.28972 | -166.12066 | 8206 ft | 301 kts | 81° |
| 2026-04-26 08:44 | -22.28568 | -166.09849 | 8207 ft | 301 kts | 81° |
| 2026-04-26 08:44 | -22.28165 | -166.07644 | 8206 ft | 300 kts | 81° |
| 2026-04-26 08:44 | -22.27764 | -166.05452 | 8205 ft | 301 kts | 82° |
| 2026-04-26 08:45 | -22.27356 | -166.03216 | 8209 ft | 304 kts | 82° |
| 2026-04-26 08:45 | -22.26946 | -166.00983 | 8207 ft | 302 kts | 81° |
| 2026-04-26 08:45 | -22.26538 | -165.98764 | 8205 ft | 301 kts | 81° |
| 2026-04-26 08:45 | -22.26132 | -165.96549 | 8204 ft | 301 kts | 81° |
| 2026-04-26 08:46 | -22.25726 | -165.94335 | 8205 ft | 300 kts | 81° |
| 2026-04-26 08:46 | -22.25319 | -165.92122 | 8204 ft | 300 kts | 81° |
| 2026-04-26 08:46 | -22.24911 | -165.89907 | 8203 ft | 301 kts | 81° |
| 2026-04-26 08:46 | -22.24502 | -165.87678 | 8205 ft | 303 kts | 81° |
| 2026-04-26 08:47 | -22.24091 | -165.85448 | 8205 ft | 302 kts | 81° |
| 2026-04-26 08:47 | -22.23681 | -165.83229 | 8203 ft | 301 kts | 81° |
| 2026-04-26 08:47 | -22.23273 | -165.81014 | 8202 ft | 302 kts | 81° |
| 2026-04-26 08:47 | -22.22862 | -165.78785 | 8204 ft | 303 kts | 81° |
| 2026-04-26 08:48 | -22.22448 | -165.76554 | 8205 ft | 303 kts | 81° |
| 2026-04-26 08:48 | -22.22175 | -165.75079 | 8205 ft | 303 kts | 81° |
| 2026-04-26 08:48 | -22.21763 | -165.72846 | 8204 ft | 303 kts | 81° |
| 2026-04-26 08:48 | -22.21351 | -165.70620 | 8206 ft | 303 kts | 81° |
| 2026-04-26 08:49 | -22.20938 | -165.68391 | 8204 ft | 302 kts | 81° |
| 2026-04-26 08:49 | -22.20524 | -165.66164 | 8202 ft | 303 kts | 81° |
| 2026-04-26 08:49 | -22.20111 | -165.63936 | 8203 ft | 303 kts | 81° |
| 2026-04-26 08:49 | -22.19697 | -165.61709 | 8203 ft | 303 kts | 81° |
| 2026-04-26 08:50 | -22.19283 | -165.59483 | 8205 ft | 302 kts | 81° |
| 2026-04-26 08:50 | -22.18869 | -165.57255 | 8205 ft | 303 kts | 81° |
| 2026-04-26 08:50 | -22.18454 | -165.55026 | 8206 ft | 303 kts | 81° |
| 2026-04-26 08:50 | -22.18038 | -165.52800 | 8205 ft | 302 kts | 81° |
| 2026-04-26 08:51 | -22.17211 | -165.48366 | 8208 ft | 302 kts | 81° |
| 2026-04-26 08:51 | -22.16797 | -165.46144 | 8207 ft | 301 kts | 81° |
| 2026-04-26 08:51 | -22.16382 | -165.43926 | 8207 ft | 302 kts | 81° |
| 2026-04-26 08:52 | -22.15966 | -165.41701 | 8205 ft | 303 kts | 81° |
| 2026-04-26 08:52 | -22.15549 | -165.39478 | 8206 ft | 302 kts | 81° |
| 2026-04-26 08:52 | -22.15132 | -165.37254 | 8206 ft | 303 kts | 81° |
| 2026-04-26 08:52 | -22.14715 | -165.35026 | 8207 ft | 304 kts | 81° |
| 2026-04-26 08:53 | -22.14295 | -165.32789 | 8209 ft | 305 kts | 81° |
| 2026-04-26 08:53 | -22.13879 | -165.30576 | 8206 ft | 305 kts | 81° |
| 2026-04-26 08:53 | -22.13457 | -165.28332 | 8206 ft | 305 kts | 81° |
| 2026-04-26 08:53 | -22.13034 | -165.26084 | 8207 ft | 306 kts | 81° |
| 2026-04-26 08:54 | -22.12612 | -165.23842 | 8208 ft | 304 kts | 81° |
| 2026-04-26 08:54 | -22.12190 | -165.21607 | 8207 ft | 303 kts | 81° |
| 2026-04-26 08:54 | -22.11772 | -165.19383 | 8206 ft | 303 kts | 81° |
| 2026-04-26 08:54 | -22.11351 | -165.17153 | 8205 ft | 303 kts | 81° |
| 2026-04-26 08:55 | -22.10930 | -165.14927 | 8205 ft | 302 kts | 81° |
| 2026-04-26 08:55 | -22.10510 | -165.12706 | 8205 ft | 303 kts | 81° |
| 2026-04-26 08:55 | -22.10088 | -165.10468 | 8206 ft | 305 kts | 81° |
| 2026-04-26 08:55 | -22.09663 | -165.08227 | 8206 ft | 305 kts | 80° |
| 2026-04-26 08:56 | -22.09238 | -165.05989 | 8205 ft | 305 kts | 81° |
| 2026-04-26 08:56 | -22.08814 | -165.03747 | 8203 ft | 305 kts | 81° |
| 2026-04-26 08:56 | -22.08390 | -165.01511 | 8204 ft | 304 kts | 81° |
| 2026-04-26 08:56 | -22.07966 | -164.99282 | 8197 ft | 303 kts | 81° |
| 2026-04-26 08:57 | -22.07543 | -164.97056 | 8196 ft | 303 kts | 81° |
| 2026-04-26 08:57 | -22.07121 | -164.94836 | 8198 ft | 303 kts | 81° |
| 2026-04-26 08:57 | -22.06704 | -164.92643 | 8198 ft | 302 kts | 81° |
| 2026-04-26 08:57 | -22.06280 | -164.90423 | 8197 ft | 302 kts | 81° |
| 2026-04-26 08:58 | -22.05858 | -164.88202 | 8198 ft | 303 kts | 81° |
| 2026-04-26 08:58 | -22.05433 | -164.85974 | 8198 ft | 303 kts | 81° |
| 2026-04-26 08:58 | -22.05007 | -164.83748 | 8198 ft | 303 kts | 81° |
| 2026-04-26 08:58 | -22.04581 | -164.81521 | 8198 ft | 303 kts | 81° |
| 2026-04-26 08:59 | -22.04156 | -164.79291 | 8199 ft | 304 kts | 81° |
| 2026-04-26 08:59 | -22.03729 | -164.77063 | 8200 ft | 303 kts | 80° |
| 2026-04-26 08:59 | -22.03303 | -164.74842 | 8198 ft | 303 kts | 81° |
| 2026-04-26 08:59 | -22.02876 | -164.72613 | 8199 ft | 303 kts | 81° |
| 2026-04-26 09:00 | -22.02451 | -164.70390 | 8199 ft | 302 kts | 81° |
| 2026-04-26 09:00 | -22.02026 | -164.68180 | 8198 ft | 301 kts | 81° |
| 2026-04-26 09:00 | -22.01601 | -164.65966 | 8197 ft | 303 kts | 81° |
| 2026-04-26 09:00 | -22.01172 | -164.63735 | 8199 ft | 304 kts | 80° |
| 2026-04-26 09:01 | -22.00742 | -164.61503 | 8200 ft | 305 kts | 81° |
| 2026-04-26 09:01 | -22.00311 | -164.59264 | 8202 ft | 304 kts | 81° |
| 2026-04-26 09:01 | -21.99886 | -164.57059 | 8202 ft | 304 kts | 81° |
| 2026-04-26 09:01 | -21.99456 | -164.54828 | 8202 ft | 303 kts | 80° |
| 2026-04-26 09:02 | -21.99027 | -164.52605 | 8200 ft | 303 kts | 80° |
| 2026-04-26 09:02 | -21.98597 | -164.50380 | 8199 ft | 303 kts | 81° |
| 2026-04-26 09:02 | -21.98169 | -164.48161 | 8200 ft | 302 kts | 81° |
| 2026-04-26 09:02 | -21.97741 | -164.45950 | 8199 ft | 300 kts | 81° |
| 2026-04-26 09:03 | -21.97313 | -164.43743 | 8198 ft | 302 kts | 81° |
| 2026-04-26 09:03 | -21.96884 | -164.41516 | 8201 ft | 304 kts | 81° |
| 2026-04-26 09:03 | -21.96451 | -164.39286 | 8202 ft | 304 kts | 80° |
| 2026-04-26 09:03 | -21.96017 | -164.37057 | 8202 ft | 304 kts | 81° |
| 2026-04-26 09:04 | -21.95584 | -164.34825 | 8201 ft | 305 kts | 81° |
| 2026-04-26 09:04 | -21.95151 | -164.32592 | 8203 ft | 304 kts | 81° |
| 2026-04-26 09:04 | -21.94718 | -164.30370 | 8201 ft | 302 kts | 81° |
| 2026-04-26 09:04 | -21.94287 | -164.28153 | 8200 ft | 303 kts | 81° |
| 2026-04-26 09:05 | -21.93855 | -164.25933 | 8202 ft | 303 kts | 81° |
| 2026-04-26 09:05 | -21.93422 | -164.23711 | 8202 ft | 302 kts | 80° |
| 2026-04-26 09:05 | -21.92990 | -164.21499 | 8201 ft | 301 kts | 81° |
| 2026-04-26 09:05 | -21.92564 | -164.19312 | 8202 ft | 303 kts | 81° |
| 2026-04-26 09:06 | -21.92129 | -164.17087 | 8200 ft | 303 kts | 81° |
| 2026-04-26 09:06 | -21.91695 | -164.14868 | 8199 ft | 302 kts | 80° |
| 2026-04-26 09:06 | -21.91263 | -164.12659 | 8198 ft | 302 kts | 81° |
| 2026-04-26 09:06 | -21.90829 | -164.10439 | 8199 ft | 303 kts | 80° |
| 2026-04-26 09:07 | -21.90394 | -164.08219 | 8201 ft | 303 kts | 80° |
| 2026-04-26 09:07 | -21.89958 | -164.05999 | 8200 ft | 303 kts | 81° |
| 2026-04-26 09:07 | -21.89522 | -164.03777 | 8199 ft | 304 kts | 81° |
| 2026-04-26 09:07 | -21.89086 | -164.01552 | 8199 ft | 304 kts | 80° |
| 2026-04-26 09:08 | -21.88649 | -163.99331 | 8200 ft | 302 kts | 81° |
| 2026-04-26 09:08 | -21.88213 | -163.97115 | 8200 ft | 303 kts | 81° |
| 2026-04-26 09:08 | -21.87783 | -163.94925 | 8200 ft | 303 kts | 80° |
| 2026-04-26 09:08 | -21.87341 | -163.92680 | 8202 ft | 303 kts | 80° |
| 2026-04-26 09:09 | -21.86908 | -163.90489 | 8200 ft | 303 kts | 81° |
| 2026-04-26 09:09 | -21.86471 | -163.88266 | 8200 ft | 304 kts | 80° |
| 2026-04-26 09:09 | -21.86032 | -163.86042 | 8202 ft | 303 kts | 80° |
| 2026-04-26 09:09 | -21.85592 | -163.83824 | 8202 ft | 303 kts | 80° |
| 2026-04-26 09:10 | -21.85154 | -163.81604 | 8199 ft | 304 kts | 81° |
| 2026-04-26 09:10 | -21.84716 | -163.79381 | 8199 ft | 303 kts | 81° |
| 2026-04-26 09:10 | -21.84275 | -163.77158 | 8196 ft | 303 kts | 80° |
| 2026-04-26 09:10 | -21.83835 | -163.74938 | 8197 ft | 303 kts | 81° |
| 2026-04-26 09:11 | -21.83395 | -163.72717 | 8195 ft | 303 kts | 80° |
| 2026-04-26 09:11 | -21.82956 | -163.70503 | 8195 ft | 303 kts | 80° |
| 2026-04-26 09:11 | -21.82516 | -163.68289 | 8196 ft | 303 kts | 80° |
| 2026-04-26 09:11 | -21.82075 | -163.66070 | 8195 ft | 303 kts | 80° |
| 2026-04-26 09:12 | -21.81635 | -163.63854 | 8197 ft | 303 kts | 80° |
| 2026-04-26 09:12 | -21.81192 | -163.61630 | 8198 ft | 303 kts | 80° |
| 2026-04-26 09:12 | -21.80750 | -163.59412 | 8198 ft | 303 kts | 80° |
| 2026-04-26 09:12 | -21.80307 | -163.57186 | 8198 ft | 304 kts | 80° |
| 2026-04-26 09:13 | -21.79865 | -163.54963 | 8196 ft | 304 kts | 80° |
| 2026-04-26 09:13 | -21.79422 | -163.52743 | 8196 ft | 303 kts | 80° |
| 2026-04-26 09:13 | -21.78979 | -163.50529 | 8195 ft | 303 kts | 80° |
| 2026-04-26 09:13 | -21.78536 | -163.48314 | 8195 ft | 303 kts | 80° |
| 2026-04-26 09:14 | -21.78094 | -163.46099 | 8196 ft | 302 kts | 80° |
| 2026-04-26 09:14 | -21.77652 | -163.43892 | 8196 ft | 302 kts | 80° |
| 2026-04-26 09:14 | -21.77209 | -163.41683 | 8196 ft | 302 kts | 80° |
| 2026-04-26 09:14 | -21.76772 | -163.39501 | 8197 ft | 302 kts | 80° |
| 2026-04-26 09:15 | -21.76328 | -163.37288 | 8196 ft | 303 kts | 80° |
| 2026-04-26 09:15 | -21.75884 | -163.35073 | 8196 ft | 303 kts | 80° |
| 2026-04-26 09:15 | -21.75439 | -163.32857 | 8197 ft | 303 kts | 80° |
| 2026-04-26 09:15 | -21.74994 | -163.30645 | 8195 ft | 303 kts | 80° |
| 2026-04-26 09:16 | -21.74548 | -163.28429 | 8194 ft | 304 kts | 80° |
| 2026-04-26 09:16 | -21.74101 | -163.26207 | 8197 ft | 304 kts | 80° |
| 2026-04-26 09:16 | -21.73653 | -163.23983 | 8197 ft | 305 kts | 80° |
| 2026-04-26 09:16 | -21.73204 | -163.21756 | 8197 ft | 305 kts | 80° |
| 2026-04-26 09:17 | -21.72755 | -163.19528 | 8193 ft | 305 kts | 80° |
| 2026-04-26 09:17 | -21.72305 | -163.17304 | 8193 ft | 304 kts | 80° |
| 2026-04-26 09:17 | -21.71858 | -163.15090 | 8193 ft | 303 kts | 80° |
| 2026-04-26 09:17 | -21.71410 | -163.12873 | 8192 ft | 303 kts | 80° |
| 2026-04-26 09:18 | -21.70963 | -163.10664 | 8189 ft | 303 kts | 80° |
| 2026-04-26 09:18 | -21.70515 | -163.08452 | 8190 ft | 302 kts | 80° |
| 2026-04-26 09:18 | -21.70068 | -163.06247 | 8189 ft | 302 kts | 80° |
| 2026-04-26 09:18 | -21.69621 | -163.04036 | 8189 ft | 303 kts | 80° |
| 2026-04-26 09:19 | -21.69171 | -163.01820 | 8188 ft | 303 kts | 80° |
| 2026-04-26 09:19 | -21.68721 | -162.99608 | 8188 ft | 303 kts | 80° |
| 2026-04-26 09:19 | -21.68272 | -162.97396 | 8187 ft | 303 kts | 80° |
| 2026-04-26 09:19 | -21.67824 | -162.95188 | 8187 ft | 303 kts | 80° |
| 2026-04-26 09:20 | -21.67373 | -162.92976 | 8188 ft | 302 kts | 80° |
| 2026-04-26 09:20 | -21.66924 | -162.90771 | 8188 ft | 302 kts | 80° |
| 2026-04-26 09:20 | -21.66480 | -162.88592 | 8188 ft | 303 kts | 80° |
| 2026-04-26 09:20 | -21.66029 | -162.86378 | 8189 ft | 302 kts | 79° |
| 2026-04-26 09:21 | -21.65579 | -162.84175 | 8188 ft | 302 kts | 80° |
| 2026-04-26 09:21 | -21.65128 | -162.81968 | 8187 ft | 303 kts | 80° |
| 2026-04-26 09:21 | -21.64677 | -162.79755 | 8189 ft | 303 kts | 80° |
| 2026-04-26 09:21 | -21.64224 | -162.77544 | 8189 ft | 302 kts | 80° |
| 2026-04-26 09:22 | -21.63773 | -162.75340 | 8190 ft | 302 kts | 80° |
| 2026-04-26 09:22 | -21.63321 | -162.73127 | 8192 ft | 303 kts | 80° |
| 2026-04-26 09:22 | -21.62867 | -162.70913 | 8191 ft | 303 kts | 80° |
| 2026-04-26 09:22 | -21.62412 | -162.68702 | 8190 ft | 303 kts | 80° |
| 2026-04-26 09:23 | -21.61959 | -162.66490 | 8188 ft | 303 kts | 79° |
| 2026-04-26 09:23 | -21.61506 | -162.64280 | 8190 ft | 303 kts | 80° |
| 2026-04-26 09:23 | -21.61052 | -162.62074 | 8189 ft | 303 kts | 80° |
| 2026-04-26 09:23 | -21.60597 | -162.59866 | 8193 ft | 303 kts | 80° |
| 2026-04-26 09:24 | -21.60142 | -162.57651 | 8188 ft | 303 kts | 80° |
| 2026-04-26 09:24 | -21.59686 | -162.55431 | 8189 ft | 303 kts | 80° |
| 2026-04-26 09:24 | -21.59229 | -162.53223 | 8188 ft | 303 kts | 80° |
| 2026-04-26 09:24 | -21.58780 | -162.51042 | 8187 ft | 303 kts | 80° |
| 2026-04-26 09:25 | -21.58325 | -162.48831 | 8189 ft | 303 kts | 80° |
| 2026-04-26 09:25 | -21.57867 | -162.46623 | 8187 ft | 302 kts | 80° |
| 2026-04-26 09:25 | -21.57412 | -162.44418 | 8183 ft | 302 kts | 80° |
| 2026-04-26 09:25 | -21.56956 | -162.42208 | 8187 ft | 303 kts | 80° |
| 2026-04-26 09:26 | -21.56498 | -162.40001 | 8189 ft | 303 kts | 80° |
| 2026-04-26 09:26 | -21.56040 | -162.37791 | 8187 ft | 303 kts | 80° |
| 2026-04-26 09:26 | -21.55583 | -162.35579 | 8189 ft | 303 kts | 80° |
| 2026-04-26 09:26 | -21.55125 | -162.33370 | 8191 ft | 303 kts | 80° |
| 2026-04-26 09:27 | -21.54666 | -162.31164 | 8190 ft | 302 kts | 80° |
| 2026-04-26 09:27 | -21.54213 | -162.28985 | 8188 ft | 302 kts | 80° |
| 2026-04-26 09:27 | -21.53755 | -162.26776 | 8191 ft | 303 kts | 80° |
| 2026-04-26 09:27 | -21.53295 | -162.24567 | 8191 ft | 303 kts | 80° |
| 2026-04-26 09:28 | -21.52836 | -162.22361 | 8193 ft | 302 kts | 80° |
| 2026-04-26 09:28 | -21.52377 | -162.20153 | 8194 ft | 303 kts | 80° |
| 2026-04-26 09:28 | -21.51917 | -162.17943 | 8192 ft | 302 kts | 79° |
| 2026-04-26 09:28 | -21.51459 | -162.15754 | 8191 ft | 300 kts | 80° |
| 2026-04-26 09:29 | -21.51002 | -162.13562 | 8191 ft | 301 kts | 80° |
| 2026-04-26 09:29 | -21.50544 | -162.11370 | 8186 ft | 301 kts | 80° |
| 2026-04-26 09:29 | -21.50087 | -162.09180 | 8186 ft | 300 kts | 80° |
| 2026-04-26 09:29 | -21.49629 | -162.06992 | 8186 ft | 300 kts | 80° |
| 2026-04-26 09:30 | -21.49176 | -162.04825 | 8186 ft | 301 kts | 80° |
| 2026-04-26 09:30 | -21.48716 | -162.02630 | 8187 ft | 302 kts | 80° |
| 2026-04-26 09:30 | -21.48255 | -162.00431 | 8186 ft | 302 kts | 79° |
| 2026-04-26 09:30 | -21.47794 | -161.98231 | 8185 ft | 303 kts | 80° |
| 2026-04-26 09:31 | -21.47333 | -161.96028 | 8184 ft | 303 kts | 79° |
| 2026-04-26 09:31 | -21.46869 | -161.93827 | 8185 ft | 302 kts | 80° |
| 2026-04-26 09:31 | -21.46407 | -161.91629 | 8184 ft | 302 kts | 80° |
| 2026-04-26 09:31 | -21.45945 | -161.89430 | 8187 ft | 301 kts | 81° |
| 2026-04-26 09:32 | -21.45485 | -161.87240 | 8184 ft | 300 kts | 79° |
| 2026-04-26 09:32 | -21.45024 | -161.85057 | 8183 ft | 300 kts | 80° |
| 2026-04-26 09:32 | -21.44563 | -161.82869 | 8182 ft | 300 kts | 80° |
| 2026-04-26 09:32 | -21.44103 | -161.80681 | 8183 ft | 300 kts | 80° |
| 2026-04-26 09:33 | -21.43642 | -161.78495 | 8184 ft | 300 kts | 80° |
| 2026-04-26 09:33 | -21.43180 | -161.76310 | 8178 ft | 301 kts | 80° |
| 2026-04-26 09:33 | -21.42715 | -161.74110 | 8179 ft | 303 kts | 80° |
| 2026-04-26 09:33 | -21.42255 | -161.71931 | 8179 ft | 303 kts | 80° |
| 2026-04-26 09:34 | -21.41789 | -161.69727 | 8178 ft | 303 kts | 80° |
| 2026-04-26 09:34 | -21.41322 | -161.67523 | 8175 ft | 302 kts | 79° |
| 2026-04-26 09:34 | -21.40856 | -161.65326 | 8176 ft | 301 kts | 79° |
| 2026-04-26 09:34 | -21.40392 | -161.63137 | 8176 ft | 301 kts | 79° |
| 2026-04-26 09:35 | -21.39927 | -161.60942 | 8173 ft | 301 kts | 80° |
| 2026-04-26 09:35 | -21.39463 | -161.58755 | 8173 ft | 300 kts | 80° |
| 2026-04-26 09:35 | -21.38999 | -161.56572 | 8174 ft | 300 kts | 80° |
| 2026-04-26 09:35 | -21.38534 | -161.54385 | 8175 ft | 300 kts | 80° |
| 2026-04-26 09:36 | -21.38070 | -161.52205 | 8175 ft | 300 kts | 80° |
| 2026-04-26 09:36 | -21.37606 | -161.50025 | 8175 ft | 300 kts | 80° |
| 2026-04-26 09:36 | -21.37299 | -161.48582 | 8174 ft | 300 kts | 79° |
| 2026-04-26 09:36 | -21.36835 | -161.46405 | 8175 ft | 300 kts | 80° |
| 2026-04-26 09:37 | -21.36371 | -161.44227 | 8178 ft | 299 kts | 79° |
| 2026-04-26 09:37 | -21.35906 | -161.42049 | 8177 ft | 300 kts | 79° |
| 2026-04-26 09:37 | -21.35441 | -161.39870 | 8178 ft | 300 kts | 80° |
| 2026-04-26 09:37 | -21.34823 | -161.36979 | 8178 ft | 300 kts | 79° |
| 2026-04-26 09:38 | -21.34507 | -161.35500 | 8177 ft | 301 kts | 79° |
| 2026-04-26 09:38 | -21.34038 | -161.33310 | 8178 ft | 302 kts | 80° |
| 2026-04-26 09:38 | -21.33574 | -161.31143 | 8179 ft | 302 kts | 80° |
| 2026-04-26 09:38 | -21.33105 | -161.28948 | 8176 ft | 302 kts | 79° |
| 2026-04-26 09:39 | -21.32633 | -161.26751 | 8176 ft | 301 kts | 79° |
| 2026-04-26 09:39 | -21.32162 | -161.24558 | 8175 ft | 301 kts | 79° |
| 2026-04-26 09:39 | -21.31694 | -161.22372 | 8176 ft | 301 kts | 80° |
| 2026-04-26 09:39 | -21.31224 | -161.20185 | 8175 ft | 301 kts | 79° |
| 2026-04-26 09:40 | -21.30754 | -161.17999 | 8173 ft | 301 kts | 79° |
| 2026-04-26 09:40 | -21.30283 | -161.15811 | 8172 ft | 301 kts | 79° |
| 2026-04-26 09:40 | -21.29812 | -161.13621 | 8172 ft | 301 kts | 79° |
| 2026-04-26 09:40 | -21.29341 | -161.11436 | 8173 ft | 300 kts | 79° |
| 2026-04-26 09:41 | -21.28872 | -161.09257 | 8174 ft | 300 kts | 80° |
| 2026-04-26 09:41 | -21.28401 | -161.07075 | 8172 ft | 300 kts | 79° |
| 2026-04-26 09:41 | -21.27935 | -161.04894 | 8172 ft | 300 kts | 81° |
| 2026-04-26 09:41 | -21.27713 | -161.02713 | 8168 ft | 297 kts | 89° |
| 2026-04-26 09:42 | -21.27571 | -161.00500 | 8169 ft | 297 kts | 89° |
| 2026-04-26 09:42 | -21.27415 | -160.98284 | 8098 ft | 300 kts | 89° |
| 2026-04-26 09:42 | -21.27256 | -160.96052 | 7955 ft | 299 kts | 89° |
| 2026-04-26 09:42 | -21.27101 | -160.93844 | 7804 ft | 296 kts | 89° |
| 2026-04-26 09:43 | -21.26949 | -160.91658 | 7701 ft | 293 kts | 89° |
| 2026-04-26 09:43 | -21.26799 | -160.89481 | 7597 ft | 292 kts | 89° |
| 2026-04-26 09:43 | -21.26647 | -160.87309 | 7503 ft | 292 kts | 88° |
| 2026-04-26 09:43 | -21.26494 | -160.85138 | 7405 ft | 292 kts | 89° |
| 2026-04-26 09:44 | -21.26341 | -160.82973 | 7296 ft | 291 kts | 89° |
| 2026-04-26 09:44 | -21.26190 | -160.80822 | 7198 ft | 283 kts | 89° |
| 2026-04-26 09:44 | -21.26043 | -160.78780 | 7072 ft | 267 kts | 89° |
| 2026-04-26 09:44 | -21.25905 | -160.76839 | 6835 ft | 258 kts | 89° |
| 2026-04-26 09:45 | -21.25772 | -160.74888 | 6238 ft | 266 kts | 89° |
| 2026-04-26 09:45 | -21.25632 | -160.72892 | 5620 ft | 270 kts | 89° |
| 2026-04-26 09:45 | -21.25488 | -160.70889 | 5020 ft | 270 kts | 89° |
| 2026-04-26 09:45 | -21.25345 | -160.68882 | 4405 ft | 270 kts | 88° |
| 2026-04-26 09:46 | -21.25202 | -160.66880 | 3782 ft | 268 kts | 88° |
| 2026-04-26 09:46 | -21.25064 | -160.64975 | 3208 ft | 239 kts | 88° |
| 2026-04-26 09:46 | -21.24942 | -160.63327 | 3158 ft | 216 kts | 89° |
| 2026-04-26 09:46 | -21.24835 | -160.61815 | 3151 ft | 196 kts | 89° |
| 2026-04-26 09:47 | -21.24734 | -160.60324 | 3160 ft | 202 kts | 88° |
| 2026-04-26 09:47 | -21.24627 | -160.58849 | 3156 ft | 196 kts | 88° |
| 2026-04-26 09:47 | -21.24520 | -160.57378 | 3161 ft | 200 kts | 88° |
| 2026-04-26 09:47 | -21.24414 | -160.55885 | 3169 ft | 200 kts | 88° |
| 2026-04-26 09:48 | -21.24306 | -160.54397 | 3168 ft | 200 kts | 89° |
| 2026-04-26 09:48 | -21.24200 | -160.52914 | 3168 ft | 200 kts | 89° |
| 2026-04-26 09:48 | -21.24094 | -160.51433 | 3167 ft | 199 kts | 89° |
| 2026-04-26 09:48 | -21.23986 | -160.49939 | 3171 ft | 203 kts | 89° |
| 2026-04-26 09:49 | -21.23878 | -160.48450 | 3166 ft | 202 kts | 89° |
| 2026-04-26 09:49 | -21.23769 | -160.46962 | 3169 ft | 198 kts | 88° |
| 2026-04-26 09:49 | -21.23661 | -160.45464 | 3171 ft | 204 kts | 89° |
| 2026-04-26 09:49 | -21.23551 | -160.43960 | 3171 ft | 201 kts | 89° |
| 2026-04-26 09:50 | -21.23443 | -160.42476 | 3167 ft | 198 kts | 89° |
| 2026-04-26 09:50 | -21.23336 | -160.41000 | 3166 ft | 199 kts | 89° |
| 2026-04-26 09:50 | -21.23228 | -160.39513 | 3171 ft | 199 kts | 89° |
| 2026-04-26 09:50 | -21.23120 | -160.38043 | 3172 ft | 198 kts | 89° |
| 2026-04-26 09:51 | -21.23011 | -160.36512 | 3179 ft | 212 kts | 89° |
| 2026-04-26 09:51 | -21.22895 | -160.34969 | 3173 ft | 203 kts | 89° |
| 2026-04-26 09:51 | -21.22787 | -160.33513 | 3162 ft | 197 kts | 89° |
| 2026-04-26 09:51 | -21.22682 | -160.32051 | 3162 ft | 197 kts | 89° |
| 2026-04-26 09:52 | -21.22574 | -160.30579 | 3157 ft | 199 kts | 89° |
| 2026-04-26 09:52 | -21.22357 | -160.27636 | 3161 ft | 198 kts | 88° |
| 2026-04-26 09:52 | -21.22248 | -160.26153 | 3164 ft | 201 kts | 88° |
| 2026-04-26 09:53 | -21.22137 | -160.24655 | 3165 ft | 201 kts | 88° |
| 2026-04-26 09:53 | -21.22028 | -160.23182 | 3167 ft | 196 kts | 89° |
| 2026-04-26 09:53 | -21.21921 | -160.21734 | 3158 ft | 195 kts | 89° |
| 2026-04-26 09:53 | -21.21814 | -160.20263 | 3163 ft | 201 kts | 88° |
| 2026-04-26 09:54 | -21.21701 | -160.18766 | 3167 ft | 202 kts | 88° |
| 2026-04-26 09:54 | -21.21589 | -160.17265 | 3163 ft | 201 kts | 89° |
| 2026-04-26 09:54 | -21.21480 | -160.15776 | 3166 ft | 199 kts | 88° |
| 2026-04-26 09:54 | -21.21369 | -160.14293 | 3162 ft | 200 kts | 88° |
| 2026-04-26 09:55 | -21.21258 | -160.12808 | 3162 ft | 199 kts | 88° |
| 2026-04-26 09:55 | -21.21148 | -160.11329 | 3162 ft | 199 kts | 88° |
| 2026-04-26 09:55 | -21.21037 | -160.09841 | 3167 ft | 201 kts | 88° |
| 2026-04-26 09:55 | -21.20926 | -160.08351 | 3168 ft | 200 kts | 88° |
| 2026-04-26 09:56 | -21.20814 | -160.06868 | 3165 ft | 199 kts | 88° |
| 2026-04-26 09:56 | -21.20704 | -160.05378 | 3168 ft | 201 kts | 88° |
| 2026-04-26 09:56 | -21.20591 | -160.03889 | 3188 ft | 192 kts | 88° |
| 2026-04-26 09:56 | -21.20485 | -160.02481 | 3164 ft | 198 kts | 88° |
| 2026-04-26 09:57 | -21.20376 | -160.01012 | 3167 ft | 200 kts | 88° |
| 2026-04-26 09:57 | -21.20263 | -159.99502 | 3185 ft | 202 kts | 88° |
| 2026-04-26 09:57 | -21.19855 | -159.98070 | 3104 ft | 208 kts | 59° |
| 2026-04-26 09:57 | -21.18654 | -159.97189 | 3037 ft | 218 kts | 20° |
| 2026-04-26 09:58 | -21.17143 | -159.97287 | 3063 ft | 221 kts | 340° |
| 2026-04-26 09:58 | -21.15956 | -159.98373 | 3151 ft | 232 kts | 302° |
| 2026-04-26 09:58 | -21.15559 | -159.99966 | 3154 ft | 222 kts | 264° |
| 2026-04-26 09:58 | -21.16102 | -160.01441 | 3152 ft | 211 kts | 225° |
| 2026-04-26 09:59 | -21.17325 | -160.02188 | 3162 ft | 203 kts | 186° |
| 2026-04-26 09:59 | -21.18663 | -160.01916 | 3163 ft | 195 kts | 147° |
| 2026-04-26 09:59 | -21.19479 | -160.00773 | 3118 ft | 204 kts | 109° |
| 2026-04-26 09:59 | -21.19425 | -159.99287 | 2923 ft | 205 kts | 71° |
| 2026-04-26 10:00 | -21.18794 | -159.98051 | 3415 ft | 158 kts | 85° |
| 2026-04-26 10:00 | -21.18942 | -159.96824 | 3896 ft | 179 kts | 96° |
| 2026-04-26 10:00 | -21.18930 | -159.95388 | 3902 ft | 195 kts | 93° |
| 2026-04-26 10:00 | -21.18870 | -159.93922 | 3732 ft | 206 kts | 89° |
| 2026-04-26 10:01 | -21.18952 | -159.92413 | 2876 ft | 195 kts | 97° |
| 2026-04-26 10:01 | -21.19060 | -159.91010 | 2526 ft | 197 kts | 103° |
| 2026-04-26 10:01 | -21.19462 | -159.89615 | 1998 ft | 194 kts | 112° |
| 2026-04-26 10:01 | -21.20004 | -159.88326 | 1186 ft | 188 kts | 112° |
| 2026-04-26 10:02 | -21.20288 | -159.86982 | 620 ft | 183 kts | 91° |
| 2026-04-26 10:02 | -21.20115 | -159.85710 | 801 ft | 170 kts | 84° |
| 2026-04-26 10:02 | -21.20067 | -159.84535 | 822 ft | 131 kts | 99° |
| 2026-04-26 10:02 | -21.20169 | -159.83573 | 402 ft | 137 kts | 99° |
| 2026-04-26 10:03 | -21.20230 | -159.82570 | 219 ft | 125 kts | 91° |
| 2026-04-26 10:03 | -21.20255 | -159.81737 | 57 ft | 102 kts | 92° |
| 2026-04-26 10:03 | -21.20258 | -159.81114 | 14 ft | 49 kts | 90° |
| 2026-04-26 10:03 | -21.20258 | -159.80788 | 12 ft | 40 kts | 90° |
| 2026-04-26 10:04 | -21.20259 | -159.80505 | 10 ft | 35 kts | 90° |
| 2026-04-26 10:04 | -21.20259 | -159.80256 | 10 ft | 32 kts | 90° |
| 2026-04-26 10:04 | -21.20257 | -159.80027 | 11 ft | 30 kts | 88° |
| 2026-04-26 10:04 | -21.20255 | -159.79874 | 12 ft | 12 kts | 86° |
| 2026-04-26 10:05 | -21.20218 | -159.79825 | 12 ft | 7 kts | 10° |
| 2026-04-26 10:05 | -21.20154 | -159.79825 | 11 ft | 12 kts | 6° |
| 2026-04-26 10:05 | -21.20110 | -159.79749 | 10 ft | 13 kts | 85° |
| 2026-04-26 10:05 | -21.20106 | -159.79677 | 10 ft | 6 kts | 79° |
| 2026-04-26 10:06 | -21.20078 | -159.79646 | 10 ft | 6 kts | 15° |
| 2026-04-26 10:06 | -21.20047 | -159.79651 | 10 ft | 0 kts | 335° |